sensor_id;sensor_type;location;lat;lon;timestamp;temperature;humidity
71173;DHT22;58875;51.996;4.504;2022-12-07T00:01:14;6.24;87.11
71173;DHT22;58875;51.996;4.504;2022-12-07T00:03:42;6.24;87.00
71173;DHT22;58875;51.996;4.504;2022-12-07T00:06:10;6.26;86.71
71173;DHT22;58875;51.996;4.504;2022-12-07T00:08:37;6.24;86.76
71173;DHT22;58875;51.996;4.504;2022-12-07T00:11:14;6.25;86.60
71173;DHT22;58875;51.996;4.504;2022-12-07T00:13:40;6.19;86.12
71173;DHT22;58875;51.996;4.504;2022-12-07T00:16:12;6.12;85.80
71173;DHT22;58875;51.996;4.504;2022-12-07T00:18:38;5.98;85.49
71173;DHT22;58875;51.996;4.504;2022-12-07T00:21:22;5.86;85.19
71173;DHT22;58875;51.996;4.504;2022-12-07T00:23:50;5.80;85.07
71173;DHT22;58875;51.996;4.504;2022-12-07T00:26:21;5.74;85.01
71173;DHT22;58875;51.996;4.504;2022-12-07T00:28:50;5.61;84.82
71173;DHT22;58875;51.996;4.504;2022-12-07T00:31:18;5.51;84.83
71173;DHT22;58875;51.996;4.504;2022-12-07T00:33:45;5.42;84.77
71173;DHT22;58875;51.996;4.504;2022-12-07T00:36:14;5.33;84.71
71173;DHT22;58875;51.996;4.504;2022-12-07T00:38:41;5.30;84.65
71173;DHT22;58875;51.996;4.504;2022-12-07T00:41:11;5.18;84.61
71173;DHT22;58875;51.996;4.504;2022-12-07T00:43:37;5.12;84.51
71173;DHT22;58875;51.996;4.504;2022-12-07T00:46:03;5.07;84.67
71173;DHT22;58875;51.996;4.504;2022-12-07T00:48:29;4.93;84.51
71173;DHT22;58875;51.996;4.504;2022-12-07T00:50:55;4.88;84.50
71173;DHT22;58875;51.996;4.504;2022-12-07T00:53:21;4.77;84.51
71173;DHT22;58875;51.996;4.504;2022-12-07T00:55:46;4.71;84.59
71173;DHT22;58875;51.996;4.504;2022-12-07T00:58:12;4.69;84.67
71173;DHT22;58875;51.996;4.504;2022-12-07T01:00:40;4.71;84.89
71173;DHT22;58875;51.996;4.504;2022-12-07T01:03:07;4.79;85.20
71173;DHT22;58875;51.996;4.504;2022-12-07T01:05:34;4.85;85.44
71173;DHT22;58875;51.996;4.504;2022-12-07T01:08:00;4.91;85.89
71173;DHT22;58875;51.996;4.504;2022-12-07T01:10:26;5.02;86.19
71173;DHT22;58875;51.996;4.504;2022-12-07T01:12:52;5.07;85.85
71173;DHT22;58875;51.996;4.504;2022-12-07T01:15:17;5.05;85.59
71173;DHT22;58875;51.996;4.504;2022-12-07T01:17:43;5.00;85.34
71173;DHT22;58875;51.996;4.504;2022-12-07T01:20:09;4.92;85.04
71173;DHT22;58875;51.996;4.504;2022-12-07T01:22:38;4.79;84.96
71173;DHT22;58875;51.996;4.504;2022-12-07T01:25:05;4.71;84.86
71173;DHT22;58875;51.996;4.504;2022-12-07T01:27:33;4.64;84.74
71173;DHT22;58875;51.996;4.504;2022-12-07T01:29:58;4.53;84.64
71173;DHT22;58875;51.996;4.504;2022-12-07T01:32:24;4.46;84.63
71173;DHT22;58875;51.996;4.504;2022-12-07T01:34:49;4.41;84.74
71173;DHT22;58875;51.996;4.504;2022-12-07T01:37:15;4.36;84.83
71173;DHT22;58875;51.996;4.504;2022-12-07T01:39:40;4.34;84.82
71173;DHT22;58875;51.996;4.504;2022-12-07T01:42:10;4.24;84.80
71173;DHT22;58875;51.996;4.504;2022-12-07T01:47:40;4.21;85.30
71173;DHT22;58875;51.996;4.504;2022-12-07T01:50:06;4.32;85.52
71173;DHT22;58875;51.996;4.504;2022-12-07T01:52:34;4.40;85.90
71173;DHT22;58875;51.996;4.504;2022-12-07T01:55:04;4.62;86.53
71173;DHT22;58875;51.996;4.504;2022-12-07T01:57:35;4.92;86.84
71173;DHT22;58875;51.996;4.504;2022-12-07T02:00:04;5.09;86.68
71173;DHT22;58875;51.996;4.504;2022-12-07T02:02:34;5.23;86.35
71173;DHT22;58875;51.996;4.504;2022-12-07T02:05:03;5.20;85.91
71173;DHT22;58875;51.996;4.504;2022-12-07T02:07:31;5.13;85.51
71173;DHT22;58875;51.996;4.504;2022-12-07T02:10:12;5.05;85.24
71173;DHT22;58875;51.996;4.504;2022-12-07T02:12:37;4.99;85.12
71173;DHT22;58875;51.996;4.504;2022-12-07T02:15:03;4.93;85.06
71173;DHT22;58875;51.996;4.504;2022-12-07T02:17:45;4.85;84.89
71173;DHT22;58875;51.996;4.504;2022-12-07T02:20:17;4.72;84.77
71173;DHT22;58875;51.996;4.504;2022-12-07T02:28:33;4.46;84.97
71173;DHT22;58875;51.996;4.504;2022-12-07T02:31:08;4.47;85.25
71173;DHT22;58875;51.996;4.504;2022-12-07T02:33:43;4.51;85.51
71173;DHT22;58875;51.996;4.504;2022-12-07T02:36:17;4.58;85.53
71173;DHT22;58875;51.996;4.504;2022-12-07T02:39:00;4.57;85.63
71173;DHT22;58875;51.996;4.504;2022-12-07T02:41:33;4.64;85.61
71173;DHT22;58875;51.996;4.504;2022-12-07T02:44:14;4.68;85.70
71173;DHT22;58875;51.996;4.504;2022-12-07T02:46:49;4.81;85.83
71173;DHT22;58875;51.996;4.504;2022-12-07T02:49:16;4.87;85.78
71173;DHT22;58875;51.996;4.504;2022-12-07T02:51:44;4.89;85.83
71173;DHT22;58875;51.996;4.504;2022-12-07T02:54:17;4.93;85.83
71173;DHT22;58875;51.996;4.504;2022-12-07T03:01:56;5.25;86.08
71173;DHT22;58875;51.996;4.504;2022-12-07T03:10:34;5.38;86.10
71173;DHT22;58875;51.996;4.504;2022-12-07T03:18:26;5.47;85.86
71173;DHT22;58875;51.996;4.504;2022-12-07T03:20:57;5.53;85.74
71173;DHT22;58875;51.996;4.504;2022-12-07T03:23:25;5.54;85.62
71173;DHT22;58875;51.996;4.504;2022-12-07T03:25:57;5.57;85.51
71173;DHT22;58875;51.996;4.504;2022-12-07T03:28:28;5.56;85.24
71173;DHT22;58875;51.996;4.504;2022-12-07T03:31:06;5.57;85.42
71173;DHT22;58875;51.996;4.504;2022-12-07T03:33:39;5.70;85.24
71173;DHT22;58875;51.996;4.504;2022-12-07T03:39:09;5.77;84.64
71173;DHT22;58875;51.996;4.504;2022-12-07T03:41:39;5.78;84.76
71173;DHT22;58875;51.996;4.504;2022-12-07T03:44:06;5.77;84.57
71173;DHT22;58875;51.996;4.504;2022-12-07T03:52:43;5.59;83.87
71173;DHT22;58875;51.996;4.504;2022-12-07T03:54:57;5.42;83.63
71173;DHT22;58875;51.996;4.504;2022-12-07T03:57:27;5.30;83.48
71173;DHT22;58875;51.996;4.504;2022-12-07T03:59:56;5.15;83.37
71173;DHT22;58875;51.996;4.504;2022-12-07T04:02:25;5.09;83.46
71173;DHT22;58875;51.996;4.504;2022-12-07T04:04:52;5.00;83.65
71173;DHT22;58875;51.996;4.504;2022-12-07T04:07:18;4.95;83.70
71173;DHT22;58875;51.996;4.504;2022-12-07T04:09:44;4.91;84.03
71173;DHT22;58875;51.996;4.504;2022-12-07T04:12:09;4.95;84.15
71173;DHT22;58875;51.996;4.504;2022-12-07T04:14:35;4.91;84.21
71173;DHT22;58875;51.996;4.504;2022-12-07T04:17:00;4.87;84.46
71173;DHT22;58875;51.996;4.504;2022-12-07T04:19:28;4.95;84.58
71173;DHT22;58875;51.996;4.504;2022-12-07T04:21:55;4.96;84.55
71173;DHT22;58875;51.996;4.504;2022-12-07T04:24:22;4.95;84.56
71173;DHT22;58875;51.996;4.504;2022-12-07T04:26:48;4.91;84.55
71173;DHT22;58875;51.996;4.504;2022-12-07T04:29:15;4.88;84.63
71173;DHT22;58875;51.996;4.504;2022-12-07T04:31:42;4.93;84.63
71173;DHT22;58875;51.996;4.504;2022-12-07T04:34:08;4.96;84.73
71173;DHT22;58875;51.996;4.504;2022-12-07T04:36:34;5.02;84.53
71173;DHT22;58875;51.996;4.504;2022-12-07T04:39:01;4.93;84.34
71173;DHT22;58875;51.996;4.504;2022-12-07T04:41:27;4.79;84.11
71173;DHT22;58875;51.996;4.504;2022-12-07T04:43:57;4.74;84.08
71173;DHT22;58875;51.996;4.504;2022-12-07T04:46:24;4.65;84.25
71173;DHT22;58875;51.996;4.504;2022-12-07T04:48:52;4.57;84.19
71173;DHT22;58875;51.996;4.504;2022-12-07T04:51:24;4.48;84.15
71173;DHT22;58875;51.996;4.504;2022-12-07T04:53:50;4.46;84.09
71173;DHT22;58875;51.996;4.504;2022-12-07T04:56:17;4.43;84.12
71173;DHT22;58875;51.996;4.504;2022-12-07T04:58:44;4.33;84.21
71173;DHT22;58875;51.996;4.504;2022-12-07T05:01:10;4.33;84.27
71173;DHT22;58875;51.996;4.504;2022-12-07T05:03:39;4.37;84.38
71173;DHT22;58875;51.996;4.504;2022-12-07T05:06:05;4.37;84.54
71173;DHT22;58875;51.996;4.504;2022-12-07T05:08:33;4.44;84.73
71173;DHT22;58875;51.996;4.504;2022-12-07T05:10:59;4.38;84.59
71173;DHT22;58875;51.996;4.504;2022-12-07T05:13:25;4.33;84.60
71173;DHT22;58875;51.996;4.504;2022-12-07T05:15:50;4.33;84.71
71173;DHT22;58875;51.996;4.504;2022-12-07T05:18:16;4.29;84.67
71173;DHT22;58875;51.996;4.504;2022-12-07T05:20:42;4.29;84.76
71173;DHT22;58875;51.996;4.504;2022-12-07T05:23:08;4.32;84.82
71173;DHT22;58875;51.996;4.504;2022-12-07T05:25:34;4.21;84.48
71173;DHT22;58875;51.996;4.504;2022-12-07T05:28:00;4.26;84.91
71173;DHT22;58875;51.996;4.504;2022-12-07T05:30:26;4.27;84.85
71173;DHT22;58875;51.996;4.504;2022-12-07T05:32:52;4.17;84.65
71173;DHT22;58875;51.996;4.504;2022-12-07T05:35:18;4.11;84.71
71173;DHT22;58875;51.996;4.504;2022-12-07T05:37:44;4.09;84.61
71173;DHT22;58875;51.996;4.504;2022-12-07T05:40:12;4.05;84.43
71173;DHT22;58875;51.996;4.504;2022-12-07T05:42:38;3.97;84.34
71173;DHT22;58875;51.996;4.504;2022-12-07T05:45:04;3.92;84.33
71173;DHT22;58875;51.996;4.504;2022-12-07T05:47:30;3.87;84.24
71173;DHT22;58875;51.996;4.504;2022-12-07T05:49:56;3.79;84.27
71173;DHT22;58875;51.996;4.504;2022-12-07T05:52:21;3.71;84.54
71173;DHT22;58875;51.996;4.504;2022-12-07T05:54:48;3.71;84.48
71173;DHT22;58875;51.996;4.504;2022-12-07T05:57:14;3.66;84.40
71173;DHT22;58875;51.996;4.504;2022-12-07T05:59:40;3.64;84.45
71173;DHT22;58875;51.996;4.504;2022-12-07T06:02:08;3.61;84.57
71173;DHT22;58875;51.996;4.504;2022-12-07T06:04:37;3.62;84.62
71173;DHT22;58875;51.996;4.504;2022-12-07T06:07:04;3.64;84.69
71173;DHT22;58875;51.996;4.504;2022-12-07T06:09:30;3.65;84.72
71173;DHT22;58875;51.996;4.504;2022-12-07T06:11:57;3.66;84.80
71173;DHT22;58875;51.996;4.504;2022-12-07T06:14:42;3.69;84.77
71173;DHT22;58875;51.996;4.504;2022-12-07T06:17:08;3.69;84.73
71173;DHT22;58875;51.996;4.504;2022-12-07T06:19:34;3.69;84.69
71173;DHT22;58875;51.996;4.504;2022-12-07T06:22:00;3.65;84.56
71173;DHT22;58875;51.996;4.504;2022-12-07T06:24:26;3.59;84.60
71173;DHT22;58875;51.996;4.504;2022-12-07T06:26:52;3.56;84.43
71173;DHT22;58875;51.996;4.504;2022-12-07T06:29:18;3.52;84.41
71173;DHT22;58875;51.996;4.504;2022-12-07T06:31:45;3.44;84.47
71173;DHT22;58875;51.996;4.504;2022-12-07T06:34:17;3.37;84.58
71173;DHT22;58875;51.996;4.504;2022-12-07T06:36:43;3.31;84.68
71173;DHT22;58875;51.996;4.504;2022-12-07T06:39:09;3.31;84.85
71173;DHT22;58875;51.996;4.504;2022-12-07T06:41:39;3.30;84.84
71173;DHT22;58875;51.996;4.504;2022-12-07T06:44:06;3.31;84.95
71173;DHT22;58875;51.996;4.504;2022-12-07T06:46:32;3.32;84.99
71173;DHT22;58875;51.996;4.504;2022-12-07T06:48:57;3.41;85.15
71173;DHT22;58875;51.996;4.504;2022-12-07T06:51:23;3.52;85.60
71173;DHT22;58875;51.996;4.504;2022-12-07T06:53:51;3.78;86.67
71173;DHT22;58875;51.996;4.504;2022-12-07T06:56:17;4.06;86.73
71173;DHT22;58875;51.996;4.504;2022-12-07T06:58:42;4.24;86.69
71173;DHT22;58875;51.996;4.504;2022-12-07T07:01:13;4.38;86.18
71173;DHT22;58875;51.996;4.504;2022-12-07T07:03:39;4.43;85.90
71173;DHT22;58875;51.996;4.504;2022-12-07T07:06:06;4.41;85.58
71173;DHT22;58875;51.996;4.504;2022-12-07T07:08:33;4.37;85.34
71173;DHT22;58875;51.996;4.504;2022-12-07T07:10:59;4.36;85.20
71173;DHT22;58875;51.996;4.504;2022-12-07T07:13:26;4.32;84.96
71173;DHT22;58875;51.996;4.504;2022-12-07T07:15:52;4.23;84.81
71173;DHT22;58875;51.996;4.504;2022-12-07T07:18:18;4.14;84.69
71173;DHT22;58875;51.996;4.504;2022-12-07T07:20:43;4.10;84.76
71173;DHT22;58875;51.996;4.504;2022-12-07T07:23:09;4.11;84.70
71173;DHT22;58875;51.996;4.504;2022-12-07T07:25:35;4.03;84.74
71173;DHT22;58875;51.996;4.504;2022-12-07T07:28:00;4.00;84.79
71173;DHT22;58875;51.996;4.504;2022-12-07T07:30:27;3.99;84.85
71173;DHT22;58875;51.996;4.504;2022-12-07T07:33:01;3.99;84.88
71173;DHT22;58875;51.996;4.504;2022-12-07T07:35:28;4.03;84.87
71173;DHT22;58875;51.996;4.504;2022-12-07T07:37:54;3.97;84.84
71173;DHT22;58875;51.996;4.504;2022-12-07T07:40:21;4.00;84.73
71173;DHT22;58875;51.996;4.504;2022-12-07T07:42:47;3.95;84.57
71173;DHT22;58875;51.996;4.504;2022-12-07T07:45:14;3.86;84.54
71173;DHT22;58875;51.996;4.504;2022-12-07T07:47:39;3.83;84.57
71173;DHT22;58875;51.996;4.504;2022-12-07T07:50:05;3.82;84.60
71173;DHT22;58875;51.996;4.504;2022-12-07T07:52:31;3.76;84.68
71173;DHT22;58875;51.996;4.504;2022-12-07T07:54:57;3.75;84.75
71173;DHT22;58875;51.996;4.504;2022-12-07T07:57:22;3.83;85.04
71173;DHT22;58875;51.996;4.504;2022-12-07T07:59:48;3.93;85.40
71173;DHT22;58875;51.996;4.504;2022-12-07T08:02:16;4.11;85.53
71173;DHT22;58875;51.996;4.504;2022-12-07T08:04:43;4.26;85.46
71173;DHT22;58875;51.996;4.504;2022-12-07T08:07:08;4.40;85.49
71173;DHT22;58875;51.996;4.504;2022-12-07T08:09:34;4.53;85.38
71173;DHT22;58875;51.996;4.504;2022-12-07T08:11:59;4.54;84.96
71173;DHT22;58875;51.996;4.504;2022-12-07T08:14:26;4.50;84.81
71173;DHT22;58875;51.996;4.504;2022-12-07T08:16:53;4.43;84.59
71173;DHT22;58875;51.996;4.504;2022-12-07T08:19:18;4.43;84.46
71173;DHT22;58875;51.996;4.504;2022-12-07T08:21:44;4.33;84.37
71173;DHT22;58875;51.996;4.504;2022-12-07T08:24:09;4.37;84.48
71173;DHT22;58875;51.996;4.504;2022-12-07T08:26:38;4.38;84.42
71173;DHT22;58875;51.996;4.504;2022-12-07T08:29:03;4.37;84.32
71173;DHT22;58875;51.996;4.504;2022-12-07T08:31:29;4.36;84.34
71173;DHT22;58875;51.996;4.504;2022-12-07T08:33:55;4.38;84.37
71173;DHT22;58875;51.996;4.504;2022-12-07T08:36:21;4.41;84.35
71173;DHT22;58875;51.996;4.504;2022-12-07T08:38:48;4.50;84.49
71173;DHT22;58875;51.996;4.504;2022-12-07T08:41:13;4.56;84.50
71173;DHT22;58875;51.996;4.504;2022-12-07T08:43:39;4.64;84.57
71173;DHT22;58875;51.996;4.504;2022-12-07T08:46:25;4.64;84.54
71173;DHT22;58875;51.996;4.504;2022-12-07T08:49:05;4.69;84.59
71173;DHT22;58875;51.996;4.504;2022-12-07T08:51:33;4.71;84.56
71173;DHT22;58875;51.996;4.504;2022-12-07T08:54:04;4.81;84.66
71173;DHT22;58875;51.996;4.504;2022-12-07T08:56:31;4.88;84.66
71173;DHT22;58875;51.996;4.504;2022-12-07T08:58:58;4.93;84.56
71173;DHT22;58875;51.996;4.504;2022-12-07T09:01:23;4.91;84.51
71173;DHT22;58875;51.996;4.504;2022-12-07T09:03:49;4.92;84.50
71173;DHT22;58875;51.996;4.504;2022-12-07T09:06:15;5.04;84.47
71173;DHT22;58875;51.996;4.504;2022-12-07T09:08:47;5.23;84.48
71173;DHT22;58875;51.996;4.504;2022-12-07T09:11:13;5.49;85.07
71173;DHT22;58875;51.996;4.504;2022-12-07T09:13:39;5.80;85.46
71173;DHT22;58875;51.996;4.504;2022-12-07T09:16:04;6.01;85.51
71173;DHT22;58875;51.996;4.504;2022-12-07T09:18:30;6.14;85.26
71173;DHT22;58875;51.996;4.504;2022-12-07T09:20:56;6.12;85.02
71173;DHT22;58875;51.996;4.504;2022-12-07T09:23:22;6.07;85.18
71173;DHT22;58875;51.996;4.504;2022-12-07T09:25:47;6.01;85.18
71173;DHT22;58875;51.996;4.504;2022-12-07T09:28:13;6.04;85.07
71173;DHT22;58875;51.996;4.504;2022-12-07T09:30:38;6.05;85.05
71173;DHT22;58875;51.996;4.504;2022-12-07T09:33:04;6.05;84.71
71173;DHT22;58875;51.996;4.504;2022-12-07T09:35:29;6.02;84.50
71173;DHT22;58875;51.996;4.504;2022-12-07T09:37:55;5.98;84.44
71173;DHT22;58875;51.996;4.504;2022-12-07T09:40:22;5.91;84.30
71173;DHT22;58875;51.996;4.504;2022-12-07T09:42:52;5.88;84.21
71173;DHT22;58875;51.996;4.504;2022-12-07T09:45:25;5.88;84.12
71173;DHT22;58875;51.996;4.504;2022-12-07T09:47:52;5.88;84.08
71173;DHT22;58875;51.996;4.504;2022-12-07T09:50:25;5.97;84.25
71173;DHT22;58875;51.996;4.504;2022-12-07T09:52:53;6.14;84.49
71173;DHT22;58875;51.996;4.504;2022-12-07T09:55:26;6.31;84.71
71173;DHT22;58875;51.996;4.504;2022-12-07T09:57:53;6.49;84.76
71173;DHT22;58875;51.996;4.504;2022-12-07T10:00:21;6.70;84.75
71173;DHT22;58875;51.996;4.504;2022-12-07T10:02:59;7.05;84.84
71173;DHT22;58875;51.996;4.504;2022-12-07T10:05:46;7.36;84.12
71173;DHT22;58875;51.996;4.504;2022-12-07T10:08:14;7.48;83.89
71173;DHT22;58875;51.996;4.504;2022-12-07T10:10:41;7.50;83.87
71173;DHT22;58875;51.996;4.504;2022-12-07T10:13:11;7.47;84.01
71173;DHT22;58875;51.996;4.504;2022-12-07T10:15:50;7.48;83.86
71173;DHT22;58875;51.996;4.504;2022-12-07T10:23:41;7.34;83.10
71173;DHT22;58875;51.996;4.504;2022-12-07T10:26:26;7.31;83.06
71173;DHT22;58875;51.996;4.504;2022-12-07T10:28:53;7.31;82.85
71173;DHT22;58875;51.996;4.504;2022-12-07T10:31:21;7.34;82.93
71173;DHT22;58875;51.996;4.504;2022-12-07T10:34:00;7.32;83.12
71173;DHT22;58875;51.996;4.504;2022-12-07T10:36:34;7.48;83.16
71173;DHT22;58875;51.996;4.504;2022-12-07T10:39:19;7.71;83.23
71173;DHT22;58875;51.996;4.504;2022-12-07T10:44:28;8.03;83.13
71173;DHT22;58875;51.996;4.504;2022-12-07T10:47:05;8.14;82.93
71173;DHT22;58875;51.996;4.504;2022-12-07T11:01:28;8.64;77.44
71173;DHT22;58875;51.996;4.504;2022-12-07T11:12:09;8.44;76.96
71173;DHT22;58875;51.996;4.504;2022-12-07T11:17:40;8.45;76.56
71173;DHT22;58875;51.996;4.504;2022-12-07T11:20:29;8.58;77.69
71173;DHT22;58875;51.996;4.504;2022-12-07T11:28:22;9.04;76.67
71173;DHT22;58875;51.996;4.504;2022-12-07T11:38:57;9.11;74.46
71173;DHT22;58875;51.996;4.504;2022-12-07T11:41:29;8.72;73.33
71173;DHT22;58875;51.996;4.504;2022-12-07T11:47:22;7.25;79.42
71173;DHT22;58875;51.996;4.504;2022-12-07T11:49:56;6.82;81.74
71173;DHT22;58875;51.996;4.504;2022-12-07T11:54:59;6.38;83.01
71173;DHT22;58875;51.996;4.504;2022-12-07T11:57:39;6.12;83.93
71173;DHT22;58875;51.996;4.504;2022-12-07T12:00:14;6.12;84.56
71173;DHT22;58875;51.996;4.504;2022-12-07T12:03:01;6.31;84.26
71173;DHT22;58875;51.996;4.504;2022-12-07T12:05:29;6.52;84.26
71173;DHT22;58875;51.996;4.504;2022-12-07T12:21:38;7.24;83.09
71173;DHT22;58875;51.996;4.504;2022-12-07T12:24:14;7.41;82.46
71173;DHT22;58875;51.996;4.504;2022-12-07T12:26:51;7.55;82.46
71173;DHT22;58875;51.996;4.504;2022-12-07T12:29:34;7.87;82.78
71173;DHT22;58875;51.996;4.504;2022-12-07T12:32:24;8.33;82.59
71173;DHT22;58875;51.996;4.504;2022-12-07T12:35:00;8.45;81.00
71173;DHT22;58875;51.996;4.504;2022-12-07T12:42:51;8.33;79.22
71173;DHT22;58875;51.996;4.504;2022-12-07T12:53:25;8.29;77.43
71173;DHT22;58875;51.996;4.504;2022-12-07T12:56:20;8.22;77.08
71173;DHT22;58875;51.996;4.504;2022-12-07T12:58:50;8.30;77.28
71173;DHT22;58875;51.996;4.504;2022-12-07T13:04:12;8.61;77.60
71173;DHT22;58875;51.996;4.504;2022-12-07T13:06:41;8.74;76.92
71173;DHT22;58875;51.996;4.504;2022-12-07T13:09:20;8.65;77.36
71173;DHT22;58875;51.996;4.504;2022-12-07T13:11:48;8.40;74.87
71173;DHT22;58875;51.996;4.504;2022-12-07T13:17:03;7.83;75.31
71173;DHT22;58875;51.996;4.504;2022-12-07T13:25:21;7.55;74.09
71173;DHT22;58875;51.996;4.504;2022-12-07T13:27:55;7.61;75.01
71173;DHT22;58875;51.996;4.504;2022-12-07T13:30:22;7.65;75.76
71173;DHT22;58875;51.996;4.504;2022-12-07T13:32:57;7.63;75.48
71173;DHT22;58875;51.996;4.504;2022-12-07T13:35:35;7.76;75.84
71173;DHT22;58875;51.996;4.504;2022-12-07T13:38:13;7.79;75.44
71173;DHT22;58875;51.996;4.504;2022-12-07T13:40:39;7.82;75.44
71173;DHT22;58875;51.996;4.504;2022-12-07T13:43:14;7.94;74.65
71173;DHT22;58875;51.996;4.504;2022-12-07T13:45:41;7.94;74.42
71173;DHT22;58875;51.996;4.504;2022-12-07T13:48:32;7.99;74.43
71173;DHT22;58875;51.996;4.504;2022-12-07T13:51:00;7.96;73.84
71173;DHT22;58875;51.996;4.504;2022-12-07T13:53:27;7.93;74.24
71173;DHT22;58875;51.996;4.504;2022-12-07T13:56:00;7.97;74.01
71173;DHT22;58875;51.996;4.504;2022-12-07T13:58:30;8.00;73.64
71173;DHT22;58875;51.996;4.504;2022-12-07T14:00:57;8.13;73.48
71173;DHT22;58875;51.996;4.504;2022-12-07T14:03:29;8.26;73.59
71173;DHT22;58875;51.996;4.504;2022-12-07T14:06:23;8.34;73.63
71173;DHT22;58875;51.996;4.504;2022-12-07T14:08:50;8.29;74.11
71173;DHT22;58875;51.996;4.504;2022-12-07T14:11:30;8.14;73.54
71173;DHT22;58875;51.996;4.504;2022-12-07T14:14:00;8.12;73.55
71173;DHT22;58875;51.996;4.504;2022-12-07T14:16:35;8.03;74.18
71173;DHT22;58875;51.996;4.504;2022-12-07T14:19:38;7.93;74.39
71173;DHT22;58875;51.996;4.504;2022-12-07T14:22:09;7.85;74.35
71173;DHT22;58875;51.996;4.504;2022-12-07T14:24:44;7.87;74.31
71173;DHT22;58875;51.996;4.504;2022-12-07T14:27:24;7.82;74.37
71173;DHT22;58875;51.996;4.504;2022-12-07T14:29:56;7.82;74.89
71173;DHT22;58875;51.996;4.504;2022-12-07T14:32:27;7.85;75.06
71173;DHT22;58875;51.996;4.504;2022-12-07T14:37:25;7.92;75.25
71173;DHT22;58875;51.996;4.504;2022-12-07T14:39:51;7.89;75.37
71173;DHT22;58875;51.996;4.504;2022-12-07T14:42:17;7.94;75.56
71173;DHT22;58875;51.996;4.504;2022-12-07T14:44:43;7.93;75.74
71173;DHT22;58875;51.996;4.504;2022-12-07T14:47:12;7.94;76.15
71173;DHT22;58875;51.996;4.504;2022-12-07T14:49:38;7.99;76.18
71173;DHT22;58875;51.996;4.504;2022-12-07T14:52:05;7.99;76.71
71173;DHT22;58875;51.996;4.504;2022-12-07T14:54:32;7.94;76.88
71173;DHT22;58875;51.996;4.504;2022-12-07T14:56:58;7.96;77.37
71173;DHT22;58875;51.996;4.504;2022-12-07T14:59:26;7.96;77.42
71173;DHT22;58875;51.996;4.504;2022-12-07T15:01:57;8.02;77.12
71173;DHT22;58875;51.996;4.504;2022-12-07T15:04:23;7.87;76.11
71173;DHT22;58875;51.996;4.504;2022-12-07T15:07:03;7.66;76.92
71173;DHT22;58875;51.996;4.504;2022-12-07T15:09:28;7.59;77.62
71173;DHT22;58875;51.996;4.504;2022-12-07T15:11:54;7.62;78.27
71173;DHT22;58875;51.996;4.504;2022-12-07T15:14:20;7.63;78.41
71173;DHT22;58875;51.996;4.504;2022-12-07T15:16:45;7.52;78.08
71173;DHT22;58875;51.996;4.504;2022-12-07T15:19:17;7.38;78.76
71173;DHT22;58875;51.996;4.504;2022-12-07T15:21:44;7.27;79.41
71173;DHT22;58875;51.996;4.504;2022-12-07T15:24:11;7.17;79.85
71173;DHT22;58875;51.996;4.504;2022-12-07T15:26:38;7.13;80.39
71173;DHT22;58875;51.996;4.504;2022-12-07T15:29:05;7.11;80.52
71173;DHT22;58875;51.996;4.504;2022-12-07T15:31:32;7.14;80.47
71173;DHT22;58875;51.996;4.504;2022-12-07T15:33:57;7.11;80.54
71173;DHT22;58875;51.996;4.504;2022-12-07T15:36:27;7.01;80.80
71173;DHT22;58875;51.996;4.504;2022-12-07T15:38:52;7.00;80.93
71173;DHT22;58875;51.996;4.504;2022-12-07T15:41:20;6.90;81.19
71173;DHT22;58875;51.996;4.504;2022-12-07T15:43:46;6.96;81.21
71173;DHT22;58875;51.996;4.504;2022-12-07T15:46:36;6.89;81.31
71173;DHT22;58875;51.996;4.504;2022-12-07T15:49:03;6.86;81.77
71173;DHT22;58875;51.996;4.504;2022-12-07T15:51:29;6.84;81.13
71173;DHT22;58875;51.996;4.504;2022-12-07T15:53:55;6.80;80.21
71173;DHT22;58875;51.996;4.504;2022-12-07T15:56:22;6.84;80.67
71173;DHT22;58875;51.996;4.504;2022-12-07T15:58:47;6.83;80.36
71173;DHT22;58875;51.996;4.504;2022-12-07T16:01:17;6.91;80.32
71173;DHT22;58875;51.996;4.504;2022-12-07T16:03:44;6.97;79.84
71173;DHT22;58875;51.996;4.504;2022-12-07T16:06:10;7.00;79.49
71173;DHT22;58875;51.996;4.504;2022-12-07T16:08:36;6.99;78.79
71173;DHT22;58875;51.996;4.504;2022-12-07T16:11:06;6.99;78.30
71173;DHT22;58875;51.996;4.504;2022-12-07T16:13:32;6.96;77.80
71173;DHT22;58875;51.996;4.504;2022-12-07T16:15:58;7.01;78.15
71173;DHT22;58875;51.996;4.504;2022-12-07T16:18:23;6.97;77.45
71173;DHT22;58875;51.996;4.504;2022-12-07T16:20:49;6.99;76.94
71173;DHT22;58875;51.996;4.504;2022-12-07T16:23:15;6.99;76.28
71173;DHT22;58875;51.996;4.504;2022-12-07T16:25:41;6.99;75.98
71173;DHT22;58875;51.996;4.504;2022-12-07T16:28:07;6.97;76.25
71173;DHT22;58875;51.996;4.504;2022-12-07T16:30:36;6.96;75.63
71173;DHT22;58875;51.996;4.504;2022-12-07T16:33:01;6.90;75.47
71173;DHT22;58875;51.996;4.504;2022-12-07T16:35:27;6.87;75.25
71173;DHT22;58875;51.996;4.504;2022-12-07T16:37:52;6.83;75.35
71173;DHT22;58875;51.996;4.504;2022-12-07T16:40:18;6.89;75.12
71173;DHT22;58875;51.996;4.504;2022-12-07T16:42:43;6.83;74.71
71173;DHT22;58875;51.996;4.504;2022-12-07T16:45:09;6.84;75.05
71173;DHT22;58875;51.996;4.504;2022-12-07T16:47:40;6.87;74.83
71173;DHT22;58875;51.996;4.504;2022-12-07T16:50:06;6.82;75.07
71173;DHT22;58875;51.996;4.504;2022-12-07T16:52:33;6.77;75.28
71173;DHT22;58875;51.996;4.504;2022-12-07T16:55:01;6.76;75.79
71173;DHT22;58875;51.996;4.504;2022-12-07T16:57:30;6.75;76.25
71173;DHT22;58875;51.996;4.504;2022-12-07T16:59:55;6.76;76.73
71173;DHT22;58875;51.996;4.504;2022-12-07T17:02:21;6.73;77.11
71173;DHT22;58875;51.996;4.504;2022-12-07T17:04:46;6.70;77.26
71173;DHT22;58875;51.996;4.504;2022-12-07T17:07:12;6.69;77.55
71173;DHT22;58875;51.996;4.504;2022-12-07T17:09:37;6.70;77.98
71173;DHT22;58875;51.996;4.504;2022-12-07T17:12:03;6.72;77.86
71173;DHT22;58875;51.996;4.504;2022-12-07T17:14:30;6.77;77.79
71173;DHT22;58875;51.996;4.504;2022-12-07T17:17:14;6.83;77.68
71173;DHT22;58875;51.996;4.504;2022-12-07T17:19:39;6.87;77.42
71173;DHT22;58875;51.996;4.504;2022-12-07T17:22:05;6.82;77.54
71173;DHT22;58875;51.996;4.504;2022-12-07T17:24:31;6.79;77.60
71173;DHT22;58875;51.996;4.504;2022-12-07T17:26:56;6.80;77.69
71173;DHT22;58875;51.996;4.504;2022-12-07T17:29:22;6.82;77.24
71173;DHT22;58875;51.996;4.504;2022-12-07T17:31:48;6.83;77.23
71173;DHT22;58875;51.996;4.504;2022-12-07T17:34:15;6.83;77.42
71173;DHT22;58875;51.996;4.504;2022-12-07T17:36:41;6.82;77.66
71173;DHT22;58875;51.996;4.504;2022-12-07T17:39:12;6.86;77.76
71173;DHT22;58875;51.996;4.504;2022-12-07T17:41:38;6.87;77.63
71173;DHT22;58875;51.996;4.504;2022-12-07T17:44:23;6.89;77.69
71173;DHT22;58875;51.996;4.504;2022-12-07T17:46:51;6.86;77.90
71173;DHT22;58875;51.996;4.504;2022-12-07T17:49:23;6.87;77.79
71173;DHT22;58875;51.996;4.504;2022-12-07T17:51:49;6.86;77.74
71173;DHT22;58875;51.996;4.504;2022-12-07T17:54:33;6.89;77.77
71173;DHT22;58875;51.996;4.504;2022-12-07T17:56:59;6.90;77.70
71173;DHT22;58875;51.996;4.504;2022-12-07T17:59:24;6.91;77.59
71173;DHT22;58875;51.996;4.504;2022-12-07T18:01:50;6.91;77.47